sensor_id;sensor_type;location;lat;lon;timestamp;temperature;humidity
17740;DHT22;8990;33.226;-97.150;2022-07-17T00:01:34;36.50;96.90
17740;DHT22;8990;33.226;-97.150;2022-07-17T00:04:04;36.50;96.50
17740;DHT22;8990;33.226;-97.150;2022-07-17T00:06:34;36.50;96.40
17740;DHT22;8990;33.226;-97.150;2022-07-17T00:09:03;36.50;96.70
17740;DHT22;8990;33.226;-97.150;2022-07-17T00:11:34;36.50;96.50
17740;DHT22;8990;33.226;-97.150;2022-07-17T00:14:03;36.40;96.60
17740;DHT22;8990;33.226;-97.150;2022-07-17T00:16:33;36.40;96.60
17740;DHT22;8990;33.226;-97.150;2022-07-17T00:19:02;36.40;96.50
17740;DHT22;8990;33.226;-97.150;2022-07-17T00:21:31;36.40;96.60
17740;DHT22;8990;33.226;-97.150;2022-07-17T00:24:00;36.30;96.70
17740;DHT22;8990;33.226;-97.150;2022-07-17T00:26:29;36.30;96.80
17740;DHT22;8990;33.226;-97.150;2022-07-17T00:29:02;36.20;96.80
17740;DHT22;8990;33.226;-97.150;2022-07-17T00:31:31;36.30;97.10
17740;DHT22;8990;33.226;-97.150;2022-07-17T00:34:00;36.20;97.20
17740;DHT22;8990;33.226;-97.150;2022-07-17T00:36:31;36.10;97.60
17740;DHT22;8990;33.226;-97.150;2022-07-17T00:39:00;36.10;97.70
17740;DHT22;8990;33.226;-97.150;2022-07-17T00:41:29;36.00;97.60
17740;DHT22;8990;33.226;-97.150;2022-07-17T00:44:05;36.00;97.50
17740;DHT22;8990;33.226;-97.150;2022-07-17T00:46:35;36.00;97.50
17740;DHT22;8990;33.226;-97.150;2022-07-17T00:49:05;35.90;97.50
17740;DHT22;8990;33.226;-97.150;2022-07-17T00:51:35;35.90;97.40
17740;DHT22;8990;33.226;-97.150;2022-07-17T00:54:04;35.90;97.50
17740;DHT22;8990;33.226;-97.150;2022-07-17T00:56:36;35.90;97.70
17740;DHT22;8990;33.226;-97.150;2022-07-17T00:59:07;35.80;97.70
17740;DHT22;8990;33.226;-97.150;2022-07-17T01:01:36;35.70;98.10
17740;DHT22;8990;33.226;-97.150;2022-07-17T01:04:05;35.60;98.20
17740;DHT22;8990;33.226;-97.150;2022-07-17T01:06:34;35.50;98.30
17740;DHT22;8990;33.226;-97.150;2022-07-17T01:09:03;35.50;98.50
17740;DHT22;8990;33.226;-97.150;2022-07-17T01:11:33;35.50;98.60
17740;DHT22;8990;33.226;-97.150;2022-07-17T01:14:02;35.40;98.60
17740;DHT22;8990;33.226;-97.150;2022-07-17T01:16:34;35.40;98.70
17740;DHT22;8990;33.226;-97.150;2022-07-17T01:19:03;35.30;98.70
17740;DHT22;8990;33.226;-97.150;2022-07-17T01:21:45;35.40;98.70
17740;DHT22;8990;33.226;-97.150;2022-07-17T01:24:15;35.30;98.80
17740;DHT22;8990;33.226;-97.150;2022-07-17T01:26:46;35.40;98.90
17740;DHT22;8990;33.226;-97.150;2022-07-17T01:29:16;35.20;98.90
17740;DHT22;8990;33.226;-97.150;2022-07-17T01:31:46;35.20;99.10
17740;DHT22;8990;33.226;-97.150;2022-07-17T01:34:15;35.10;99.10
17740;DHT22;8990;33.226;-97.150;2022-07-17T01:36:46;35.10;99.10
17740;DHT22;8990;33.226;-97.150;2022-07-17T01:39:15;35.10;99.20
17740;DHT22;8990;33.226;-97.150;2022-07-17T01:41:44;35.00;99.30
17740;DHT22;8990;33.226;-97.150;2022-07-17T01:44:14;35.00;99.40
17740;DHT22;8990;33.226;-97.150;2022-07-17T01:46:43;35.00;99.50
17740;DHT22;8990;33.226;-97.150;2022-07-17T01:49:13;34.90;99.60
17740;DHT22;8990;33.226;-97.150;2022-07-17T01:51:42;34.90;99.70
17740;DHT22;8990;33.226;-97.150;2022-07-17T01:54:13;34.80;99.80
17740;DHT22;8990;33.226;-97.150;2022-07-17T01:56:42;34.80;99.90
17740;DHT22;8990;33.226;-97.150;2022-07-17T01:59:11;34.60;99.90
17740;DHT22;8990;33.226;-97.150;2022-07-17T02:01:43;34.50;99.90
17740;DHT22;8990;33.226;-97.150;2022-07-17T02:04:12;34.50;99.90
17740;DHT22;8990;33.226;-97.150;2022-07-17T02:06:42;34.50;99.90
17740;DHT22;8990;33.226;-97.150;2022-07-17T02:09:12;34.50;99.90
17740;DHT22;8990;33.226;-97.150;2022-07-17T02:11:42;34.50;99.90
17740;DHT22;8990;33.226;-97.150;2022-07-17T02:14:11;34.40;99.90
17740;DHT22;8990;33.226;-97.150;2022-07-17T02:16:41;34.40;99.90
17740;DHT22;8990;33.226;-97.150;2022-07-17T02:19:10;34.30;99.90
17740;DHT22;8990;33.226;-97.150;2022-07-17T02:21:40;34.30;99.90
17740;DHT22;8990;33.226;-97.150;2022-07-17T02:24:09;34.30;99.90
17740;DHT22;8990;33.226;-97.150;2022-07-17T02:26:41;34.20;99.90
17740;DHT22;8990;33.226;-97.150;2022-07-17T02:29:10;34.20;99.90
17740;DHT22;8990;33.226;-97.150;2022-07-17T02:31:40;34.10;99.90
17740;DHT22;8990;33.226;-97.150;2022-07-17T02:34:09;34.00;99.90
17740;DHT22;8990;33.226;-97.150;2022-07-17T02:36:38;34.10;99.90
17740;DHT22;8990;33.226;-97.150;2022-07-17T02:39:07;34.10;99.90
17740;DHT22;8990;33.226;-97.150;2022-07-17T02:41:37;33.90;99.90
17740;DHT22;8990;33.226;-97.150;2022-07-17T02:44:07;33.90;99.90
17740;DHT22;8990;33.226;-97.150;2022-07-17T02:46:36;33.90;99.90
17740;DHT22;8990;33.226;-97.150;2022-07-17T02:49:06;33.80;99.90
17740;DHT22;8990;33.226;-97.150;2022-07-17T02:51:36;33.80;99.90
17740;DHT22;8990;33.226;-97.150;2022-07-17T02:54:05;33.80;99.90
17740;DHT22;8990;33.226;-97.150;2022-07-17T02:56:35;33.80;99.90
17740;DHT22;8990;33.226;-97.150;2022-07-17T02:59:04;33.70;99.90
17740;DHT22;8990;33.226;-97.150;2022-07-17T03:01:35;33.60;99.90
17740;DHT22;8990;33.226;-97.150;2022-07-17T03:04:04;33.60;99.90
17740;DHT22;8990;33.226;-97.150;2022-07-17T03:06:34;33.50;99.90
17740;DHT22;8990;33.226;-97.150;2022-07-17T03:09:03;33.50;99.90
17740;DHT22;8990;33.226;-97.150;2022-07-17T03:11:33;33.50;99.90
17740;DHT22;8990;33.226;-97.150;2022-07-17T03:14:02;33.50;99.90
17740;DHT22;8990;33.226;-97.150;2022-07-17T03:16:32;33.50;99.90
17740;DHT22;8990;33.226;-97.150;2022-07-17T03:19:02;33.40;99.90
17740;DHT22;8990;33.226;-97.150;2022-07-17T03:21:31;33.40;99.90
17740;DHT22;8990;33.226;-97.150;2022-07-17T03:24:00;33.40;99.90
17740;DHT22;8990;33.226;-97.150;2022-07-17T03:26:30;33.40;99.90
17740;DHT22;8990;33.226;-97.150;2022-07-17T03:28:59;33.40;99.90
17740;DHT22;8990;33.226;-97.150;2022-07-17T03:31:29;33.30;99.90
17740;DHT22;8990;33.226;-97.150;2022-07-17T03:33:58;33.30;99.90
17740;DHT22;8990;33.226;-97.150;2022-07-17T03:36:29;33.30;99.90
17740;DHT22;8990;33.226;-97.150;2022-07-17T03:38:58;33.30;99.90
17740;DHT22;8990;33.226;-97.150;2022-07-17T03:41:28;33.30;99.90
17740;DHT22;8990;33.226;-97.150;2022-07-17T03:43:57;33.20;99.90
17740;DHT22;8990;33.226;-97.150;2022-07-17T03:46:27;33.20;99.90
17740;DHT22;8990;33.226;-97.150;2022-07-17T03:48:56;33.20;99.90
17740;DHT22;8990;33.226;-97.150;2022-07-17T03:51:25;33.10;99.90
17740;DHT22;8990;33.226;-97.150;2022-07-17T03:53:56;33.20;99.90
17740;DHT22;8990;33.226;-97.150;2022-07-17T03:56:25;33.20;99.90
17740;DHT22;8990;33.226;-97.150;2022-07-17T03:58:55;33.10;99.90
17740;DHT22;8990;33.226;-97.150;2022-07-17T04:01:24;33.10;99.90
17740;DHT22;8990;33.226;-97.150;2022-07-17T04:03:53;33.00;99.90
17740;DHT22;8990;33.226;-97.150;2022-07-17T04:06:23;33.10;99.90
17740;DHT22;8990;33.226;-97.150;2022-07-17T04:08:52;33.00;99.90
17740;DHT22;8990;33.226;-97.150;2022-07-17T04:11:23;33.00;99.90
17740;DHT22;8990;33.226;-97.150;2022-07-17T04:13:54;33.00;99.90
17740;DHT22;8990;33.226;-97.150;2022-07-17T04:16:23;32.90;99.90
17740;DHT22;8990;33.226;-97.150;2022-07-17T04:18:52;32.90;99.90
17740;DHT22;8990;33.226;-97.150;2022-07-17T04:21:22;32.80;99.90
17740;DHT22;8990;33.226;-97.150;2022-07-17T04:23:51;33.00;99.90
17740;DHT22;8990;33.226;-97.150;2022-07-17T04:26:22;32.90;99.90
17740;DHT22;8990;33.226;-97.150;2022-07-17T04:28:51;32.90;99.90
17740;DHT22;8990;33.226;-97.150;2022-07-17T04:31:20;32.90;99.90
17740;DHT22;8990;33.226;-97.150;2022-07-17T04:33:49;32.90;99.90
17740;DHT22;8990;33.226;-97.150;2022-07-17T04:36:21;32.90;99.90
17740;DHT22;8990;33.226;-97.150;2022-07-17T04:38:50;32.90;99.90
17740;DHT22;8990;33.226;-97.150;2022-07-17T04:41:19;32.80;99.90
17740;DHT22;8990;33.226;-97.150;2022-07-17T04:43:50;32.70;99.90
17740;DHT22;8990;33.226;-97.150;2022-07-17T04:46:20;32.70;99.90
17740;DHT22;8990;33.226;-97.150;2022-07-17T04:48:49;32.60;99.90
17740;DHT22;8990;33.226;-97.150;2022-07-17T04:51:19;32.60;99.90
17740;DHT22;8990;33.226;-97.150;2022-07-17T04:53:49;32.50;99.90
17740;DHT22;8990;33.226;-97.150;2022-07-17T04:56:19;32.50;99.90
17740;DHT22;8990;33.226;-97.150;2022-07-17T04:58:50;32.50;99.90
17740;DHT22;8990;33.226;-97.150;2022-07-17T05:01:19;32.50;99.90
17740;DHT22;8990;33.226;-97.150;2022-07-17T05:03:48;32.60;99.90
17740;DHT22;8990;33.226;-97.150;2022-07-17T05:06:17;32.60;99.90
17740;DHT22;8990;33.226;-97.150;2022-07-17T05:08:46;32.50;99.90
17740;DHT22;8990;33.226;-97.150;2022-07-17T05:11:16;32.50;99.90
17740;DHT22;8990;33.226;-97.150;2022-07-17T05:13:45;32.50;99.90
17740;DHT22;8990;33.226;-97.150;2022-07-17T05:16:16;32.50;99.90
17740;DHT22;8990;33.226;-97.150;2022-07-17T05:18:45;32.40;99.90
17740;DHT22;8990;33.226;-97.150;2022-07-17T05:21:14;32.40;99.90
17740;DHT22;8990;33.226;-97.150;2022-07-17T05:23:43;32.30;99.90
17740;DHT22;8990;33.226;-97.150;2022-07-17T05:26:14;32.20;99.90
17740;DHT22;8990;33.226;-97.150;2022-07-17T05:28:44;32.20;99.90
17740;DHT22;8990;33.226;-97.150;2022-07-17T05:31:15;32.20;99.90
17740;DHT22;8990;33.226;-97.150;2022-07-17T05:33:44;32.10;99.90
17740;DHT22;8990;33.226;-97.150;2022-07-17T05:36:14;32.10;99.90
17740;DHT22;8990;33.226;-97.150;2022-07-17T05:38:43;32.10;99.90
17740;DHT22;8990;33.226;-97.150;2022-07-17T05:41:12;32.10;99.90
17740;DHT22;8990;33.226;-97.150;2022-07-17T05:43:42;32.00;99.90
17740;DHT22;8990;33.226;-97.150;2022-07-17T05:46:11;32.10;99.90
17740;DHT22;8990;33.226;-97.150;2022-07-17T05:48:42;32.00;99.90
17740;DHT22;8990;33.226;-97.150;2022-07-17T05:51:12;32.00;99.90
17740;DHT22;8990;33.226;-97.150;2022-07-17T05:53:41;31.90;99.90
17740;DHT22;8990;33.226;-97.150;2022-07-17T05:56:11;31.80;99.90
17740;DHT22;8990;33.226;-97.150;2022-07-17T05:58:41;31.80;99.90
17740;DHT22;8990;33.226;-97.150;2022-07-17T06:01:11;31.90;99.90
17740;DHT22;8990;33.226;-97.150;2022-07-17T06:03:42;31.80;99.90
17740;DHT22;8990;33.226;-97.150;2022-07-17T06:06:11;31.80;99.90
17740;DHT22;8990;33.226;-97.150;2022-07-17T06:08:40;31.80;99.90
17740;DHT22;8990;33.226;-97.150;2022-07-17T06:11:09;31.70;99.90
17740;DHT22;8990;33.226;-97.150;2022-07-17T06:13:38;31.70;99.90
17740;DHT22;8990;33.226;-97.150;2022-07-17T06:16:08;31.70;99.90
17740;DHT22;8990;33.226;-97.150;2022-07-17T06:18:37;31.60;99.90
17740;DHT22;8990;33.226;-97.150;2022-07-17T06:21:08;31.60;99.90
17740;DHT22;8990;33.226;-97.150;2022-07-17T06:23:38;31.50;99.90
17740;DHT22;8990;33.226;-97.150;2022-07-17T06:26:07;31.50;99.90
17740;DHT22;8990;33.226;-97.150;2022-07-17T06:28:37;31.50;99.90
17740;DHT22;8990;33.226;-97.150;2022-07-17T06:31:07;31.50;99.90
17740;DHT22;8990;33.226;-97.150;2022-07-17T06:33:36;31.50;99.90
17740;DHT22;8990;33.226;-97.150;2022-07-17T06:36:07;31.50;99.90
17740;DHT22;8990;33.226;-97.150;2022-07-17T06:38:36;31.40;99.90
17740;DHT22;8990;33.226;-97.150;2022-07-17T06:41:05;31.40;99.90
17740;DHT22;8990;33.226;-97.150;2022-07-17T06:43:34;31.30;99.90
17740;DHT22;8990;33.226;-97.150;2022-07-17T06:46:03;31.30;99.90
17740;DHT22;8990;33.226;-97.150;2022-07-17T06:48:32;31.30;99.90
17740;DHT22;8990;33.226;-97.150;2022-07-17T06:51:01;31.20;99.90
17740;DHT22;8990;33.226;-97.150;2022-07-17T06:53:32;31.20;99.90
17740;DHT22;8990;33.226;-97.150;2022-07-17T06:56:01;31.20;99.90
17740;DHT22;8990;33.226;-97.150;2022-07-17T06:58:30;31.10;99.90
17740;DHT22;8990;33.226;-97.150;2022-07-17T07:01:00;31.00;99.90
17740;DHT22;8990;33.226;-97.150;2022-07-17T07:03:28;31.00;99.90
17740;DHT22;8990;33.226;-97.150;2022-07-17T07:05:58;31.00;99.90
17740;DHT22;8990;33.226;-97.150;2022-07-17T07:08:26;30.90;99.90
17740;DHT22;8990;33.226;-97.150;2022-07-17T07:10:58;30.80;99.90
17740;DHT22;8990;33.226;-97.150;2022-07-17T07:13:27;30.80;99.90
17740;DHT22;8990;33.226;-97.150;2022-07-17T07:15:56;30.80;99.90
17740;DHT22;8990;33.226;-97.150;2022-07-17T07:18:26;30.80;99.90
17740;DHT22;8990;33.226;-97.150;2022-07-17T07:20:55;30.80;99.90
17740;DHT22;8990;33.226;-97.150;2022-07-17T07:23:24;30.70;99.90
17740;DHT22;8990;33.226;-97.150;2022-07-17T07:25:53;30.70;99.90
17740;DHT22;8990;33.226;-97.150;2022-07-17T07:28:24;30.70;99.90
17740;DHT22;8990;33.226;-97.150;2022-07-17T07:30:53;30.70;99.90
17740;DHT22;8990;33.226;-97.150;2022-07-17T07:33:22;30.70;99.90
17740;DHT22;8990;33.226;-97.150;2022-07-17T07:35:51;30.70;99.90
17740;DHT22;8990;33.226;-97.150;2022-07-17T07:38:21;30.60;99.90
17740;DHT22;8990;33.226;-97.150;2022-07-17T07:40:50;30.60;99.90
17740;DHT22;8990;33.226;-97.150;2022-07-17T07:43:19;30.50;99.90
17740;DHT22;8990;33.226;-97.150;2022-07-17T07:45:50;30.50;99.90
17740;DHT22;8990;33.226;-97.150;2022-07-17T07:48:20;30.50;99.90
17740;DHT22;8990;33.226;-97.150;2022-07-17T07:50:50;30.40;99.90
17740;DHT22;8990;33.226;-97.150;2022-07-17T07:53:19;30.50;99.90
17740;DHT22;8990;33.226;-97.150;2022-07-17T07:55:47;30.50;99.90
17740;DHT22;8990;33.226;-97.150;2022-07-17T07:58:17;30.50;99.90
17740;DHT22;8990;33.226;-97.150;2022-07-17T08:00:47;30.40;99.90
17740;DHT22;8990;33.226;-97.150;2022-07-17T08:03:17;30.50;99.90
17740;DHT22;8990;33.226;-97.150;2022-07-17T08:05:47;30.40;99.90
17740;DHT22;8990;33.226;-97.150;2022-07-17T08:08:15;30.40;99.90
17740;DHT22;8990;33.226;-97.150;2022-07-17T08:10:44;30.40;99.90
17740;DHT22;8990;33.226;-97.150;2022-07-17T08:13:14;30.30;99.90
17740;DHT22;8990;33.226;-97.150;2022-07-17T08:15:44;30.40;99.90
17740;DHT22;8990;33.226;-97.150;2022-07-17T08:18:13;30.30;99.90
17740;DHT22;8990;33.226;-97.150;2022-07-17T08:20:44;30.30;99.90
17740;DHT22;8990;33.226;-97.150;2022-07-17T08:23:13;30.20;99.90
17740;DHT22;8990;33.226;-97.150;2022-07-17T08:25:43;30.20;99.90
17740;DHT22;8990;33.226;-97.150;2022-07-17T08:28:14;30.20;99.90
17740;DHT22;8990;33.226;-97.150;2022-07-17T08:30:44;30.10;99.90
17740;DHT22;8990;33.226;-97.150;2022-07-17T08:33:13;30.10;99.90
17740;DHT22;8990;33.226;-97.150;2022-07-17T08:35:46;30.10;99.90
17740;DHT22;8990;33.226;-97.150;2022-07-17T08:38:15;30.00;99.90
17740;DHT22;8990;33.226;-97.150;2022-07-17T08:40:44;30.00;99.90
17740;DHT22;8990;33.226;-97.150;2022-07-17T08:43:16;30.00;99.90
17740;DHT22;8990;33.226;-97.150;2022-07-17T08:45:46;30.00;99.90
17740;DHT22;8990;33.226;-97.150;2022-07-17T08:48:17;29.90;99.90
17740;DHT22;8990;33.226;-97.150;2022-07-17T08:50:48;30.00;99.90
17740;DHT22;8990;33.226;-97.150;2022-07-17T08:53:18;30.00;99.90
17740;DHT22;8990;33.226;-97.150;2022-07-17T08:55:46;29.90;99.90
17740;DHT22;8990;33.226;-97.150;2022-07-17T08:58:17;29.90;99.90
17740;DHT22;8990;33.226;-97.150;2022-07-17T09:00:46;29.80;99.90
17740;DHT22;8990;33.226;-97.150;2022-07-17T09:03:16;29.80;99.90
17740;DHT22;8990;33.226;-97.150;2022-07-17T09:05:48;29.70;99.90
17740;DHT22;8990;33.226;-97.150;2022-07-17T09:08:18;29.70;99.90
17740;DHT22;8990;33.226;-97.150;2022-07-17T09:10:49;29.70;99.90
17740;DHT22;8990;33.226;-97.150;2022-07-17T09:13:20;29.70;99.90
17740;DHT22;8990;33.226;-97.150;2022-07-17T09:15:50;29.70;99.90
17740;DHT22;8990;33.226;-97.150;2022-07-17T09:18:21;29.70;99.90
17740;DHT22;8990;33.226;-97.150;2022-07-17T09:20:53;29.60;99.90
17740;DHT22;8990;33.226;-97.150;2022-07-17T09:23:24;29.70;99.90
17740;DHT22;8990;33.226;-97.150;2022-07-17T09:25:56;29.60;99.90
17740;DHT22;8990;33.226;-97.150;2022-07-17T09:28:25;29.50;99.90
17740;DHT22;8990;33.226;-97.150;2022-07-17T09:30:55;29.60;99.90
17740;DHT22;8990;33.226;-97.150;2022-07-17T09:33:28;29.40;99.90
17740;DHT22;8990;33.226;-97.150;2022-07-17T09:36:07;29.50;99.90
17740;DHT22;8990;33.226;-97.150;2022-07-17T09:38:38;29.40;99.90
17740;DHT22;8990;33.226;-97.150;2022-07-17T09:41:09;29.40;99.90
17740;DHT22;8990;33.226;-97.150;2022-07-17T09:43:45;29.40;99.90
17740;DHT22;8990;33.226;-97.150;2022-07-17T09:46:17;29.40;99.90
17740;DHT22;8990;33.226;-97.150;2022-07-17T09:48:48;29.30;99.90
17740;DHT22;8990;33.226;-97.150;2022-07-17T09:51:22;29.30;99.90
17740;DHT22;8990;33.226;-97.150;2022-07-17T09:53:52;29.30;99.90
17740;DHT22;8990;33.226;-97.150;2022-07-17T09:56:25;29.20;99.90
17740;DHT22;8990;33.226;-97.150;2022-07-17T09:58:55;29.20;99.90
17740;DHT22;8990;33.226;-97.150;2022-07-17T10:01:29;29.20;99.90
17740;DHT22;8990;33.226;-97.150;2022-07-17T10:03:58;29.20;99.90
17740;DHT22;8990;33.226;-97.150;2022-07-17T10:06:29;29.20;99.90
17740;DHT22;8990;33.226;-97.150;2022-07-17T10:08:59;29.10;99.90
17740;DHT22;8990;33.226;-97.150;2022-07-17T10:11:31;29.20;99.90
17740;DHT22;8990;33.226;-97.150;2022-07-17T10:14:04;29.10;99.90
17740;DHT22;8990;33.226;-97.150;2022-07-17T10:16:34;29.00;99.90
17740;DHT22;8990;33.226;-97.150;2022-07-17T10:19:16;29.10;99.90
17740;DHT22;8990;33.226;-97.150;2022-07-17T10:21:58;29.00;99.90
17740;DHT22;8990;33.226;-97.150;2022-07-17T10:24:29;29.00;99.90
17740;DHT22;8990;33.226;-97.150;2022-07-17T10:26:59;29.00;99.90
17740;DHT22;8990;33.226;-97.150;2022-07-17T10:29:30;29.00;99.90
17740;DHT22;8990;33.226;-97.150;2022-07-17T10:32:01;29.00;99.90
17740;DHT22;8990;33.226;-97.150;2022-07-17T10:34:41;29.00;99.90
17740;DHT22;8990;33.226;-97.150;2022-07-17T10:37:18;29.00;99.90
17740;DHT22;8990;33.226;-97.150;2022-07-17T10:39:55;29.00;99.90
17740;DHT22;8990;33.226;-97.150;2022-07-17T10:42:51;29.00;99.90
17740;DHT22;8990;33.226;-97.150;2022-07-17T10:45:22;29.00;99.90
17740;DHT22;8990;33.226;-97.150;2022-07-17T10:47:55;29.00;99.90
17740;DHT22;8990;33.226;-97.150;2022-07-17T10:50:27;29.00;99.90
17740;DHT22;8990;33.226;-97.150;2022-07-17T10:53:00;29.00;99.90
17740;DHT22;8990;33.226;-97.150;2022-07-17T10:55:30;29.00;99.90
17740;DHT22;8990;33.226;-97.150;2022-07-17T10:58:00;28.90;99.90
17740;DHT22;8990;33.226;-97.150;2022-07-17T11:00:30;28.90;99.90
17740;DHT22;8990;33.226;-97.150;2022-07-17T11:03:09;28.90;99.90
17740;DHT22;8990;33.226;-97.150;2022-07-17T11:05:38;28.90;99.90
17740;DHT22;8990;33.226;-97.150;2022-07-17T11:08:09;28.90;99.90
17740;DHT22;8990;33.226;-97.150;2022-07-17T11:10:39;28.90;99.90
17740;DHT22;8990;33.226;-97.150;2022-07-17T11:13:09;28.90;99.90
17740;DHT22;8990;33.226;-97.150;2022-07-17T11:15:40;28.90;99.90
17740;DHT22;8990;33.226;-97.150;2022-07-17T11:18:14;28.80;99.90
17740;DHT22;8990;33.226;-97.150;2022-07-17T11:20:49;28.80;99.90
17740;DHT22;8990;33.226;-97.150;2022-07-17T11:23:20;28.80;99.90
17740;DHT22;8990;33.226;-97.150;2022-07-17T11:25:59;28.80;99.90
17740;DHT22;8990;33.226;-97.150;2022-07-17T11:28:33;28.80;99.90
17740;DHT22;8990;33.226;-97.150;2022-07-17T11:31:04;28.70;99.90
17740;DHT22;8990;33.226;-97.150;2022-07-17T11:33:34;28.70;99.90
17740;DHT22;8990;33.226;-97.150;2022-07-17T11:36:04;28.70;99.90
17740;DHT22;8990;33.226;-97.150;2022-07-17T11:38:36;28.70;99.90
17740;DHT22;8990;33.226;-97.150;2022-07-17T11:41:06;28.70;99.90
17740;DHT22;8990;33.226;-97.150;2022-07-17T11:43:40;28.70;99.90
17740;DHT22;8990;33.226;-97.150;2022-07-17T11:46:09;28.60;99.90
17740;DHT22;8990;33.226;-97.150;2022-07-17T11:48:41;28.70;99.90
17740;DHT22;8990;33.226;-97.150;2022-07-17T11:51:11;28.70;99.90
17740;DHT22;8990;33.226;-97.150;2022-07-17T11:53:42;28.60;99.90
17740;DHT22;8990;33.226;-97.150;2022-07-17T11:56:20;28.70;99.90
17740;DHT22;8990;33.226;-97.150;2022-07-17T11:58:50;28.70;99.90
17740;DHT22;8990;33.226;-97.150;2022-07-17T12:01:19;28.60;99.90
17740;DHT22;8990;33.226;-97.150;2022-07-17T12:03:57;28.70;99.90
17740;DHT22;8990;33.226;-97.150;2022-07-17T12:06:27;28.70;99.90
17740;DHT22;8990;33.226;-97.150;2022-07-17T12:08:58;28.70;99.90
17740;DHT22;8990;33.226;-97.150;2022-07-17T12:11:27;28.80;99.90
17740;DHT22;8990;33.226;-97.150;2022-07-17T12:14:04;28.80;99.90
17740;DHT22;8990;33.226;-97.150;2022-07-17T12:16:36;28.80;99.90
17740;DHT22;8990;33.226;-97.150;2022-07-17T12:19:08;28.80;99.90
17740;DHT22;8990;33.226;-97.150;2022-07-17T12:21:54;28.70;99.90
17740;DHT22;8990;33.226;-97.150;2022-07-17T12:24:29;28.80;99.90
17740;DHT22;8990;33.226;-97.150;2022-07-17T12:27:01;28.80;99.90
17740;DHT22;8990;33.226;-97.150;2022-07-17T12:29:30;28.80;99.90
17740;DHT22;8990;33.226;-97.150;2022-07-17T12:32:04;28.90;99.90
17740;DHT22;8990;33.226;-97.150;2022-07-17T12:34:35;28.90;99.90
17740;DHT22;8990;33.226;-97.150;2022-07-17T12:37:04;29.00;99.90
17740;DHT22;8990;33.226;-97.150;2022-07-17T12:39:35;29.00;99.90
17740;DHT22;8990;33.226;-97.150;2022-07-17T12:42:05;29.10;99.90
17740;DHT22;8990;33.226;-97.150;2022-07-17T12:44:34;29.10;99.90
17740;DHT22;8990;33.226;-97.150;2022-07-17T12:47:04;29.20;99.90
17740;DHT22;8990;33.226;-97.150;2022-07-17T12:49:33;29.30;99.90
17740;DHT22;8990;33.226;-97.150;2022-07-17T12:52:03;29.30;99.90
17740;DHT22;8990;33.226;-97.150;2022-07-17T12:54:34;29.40;99.90
17740;DHT22;8990;33.226;-97.150;2022-07-17T12:57:03;29.50;99.90
17740;DHT22;8990;33.226;-97.150;2022-07-17T12:59:34;29.40;99.90
17740;DHT22;8990;33.226;-97.150;2022-07-17T13:02:03;29.50;99.90
17740;DHT22;8990;33.226;-97.150;2022-07-17T13:04:32;29.50;99.90
17740;DHT22;8990;33.226;-97.150;2022-07-17T13:07:01;29.50;99.90
17740;DHT22;8990;33.226;-97.150;2022-07-17T13:09:31;29.60;99.90
17740;DHT22;8990;33.226;-97.150;2022-07-17T13:12:02;29.70;99.90
17740;DHT22;8990;33.226;-97.150;2022-07-17T13:14:31;29.80;99.90
17740;DHT22;8990;33.226;-97.150;2022-07-17T13:17:00;29.80;99.90
17740;DHT22;8990;33.226;-97.150;2022-07-17T13:19:30;29.80;99.90
17740;DHT22;8990;33.226;-97.150;2022-07-17T13:22:01;29.90;99.90
17740;DHT22;8990;33.226;-97.150;2022-07-17T13:24:31;29.90;99.90
17740;DHT22;8990;33.226;-97.150;2022-07-17T13:27:03;30.10;99.90
17740;DHT22;8990;33.226;-97.150;2022-07-17T13:29:32;30.20;99.90
17740;DHT22;8990;33.226;-97.150;2022-07-17T13:32:01;30.30;99.90
17740;DHT22;8990;33.226;-97.150;2022-07-17T13:34:30;30.50;99.90
17740;DHT22;8990;33.226;-97.150;2022-07-17T13:37:00;30.60;99.90
17740;DHT22;8990;33.226;-97.150;2022-07-17T13:39:29;30.60;99.90
17740;DHT22;8990;33.226;-97.150;2022-07-17T13:41:58;30.70;99.90
17740;DHT22;8990;33.226;-97.150;2022-07-17T13:44:29;30.80;99.90
17740;DHT22;8990;33.226;-97.150;2022-07-17T13:46:58;30.90;99.90
17740;DHT22;8990;33.226;-97.150;2022-07-17T13:49:27;31.00;99.90
17740;DHT22;8990;33.226;-97.150;2022-07-17T13:51:57;31.10;99.90
17740;DHT22;8990;33.226;-97.150;2022-07-17T13:54:26;31.10;99.90
17740;DHT22;8990;33.226;-97.150;2022-07-17T13:56:55;31.10;99.90
17740;DHT22;8990;33.226;-97.150;2022-07-17T13:59:25;31.20;99.90
17740;DHT22;8990;33.226;-97.150;2022-07-17T14:01:56;31.20;99.90
17740;DHT22;8990;33.226;-97.150;2022-07-17T14:04:26;31.40;99.90
17740;DHT22;8990;33.226;-97.150;2022-07-17T14:06:55;31.50;99.90
17740;DHT22;8990;33.226;-97.150;2022-07-17T14:09:25;31.50;99.90
17740;DHT22;8990;33.226;-97.150;2022-07-17T14:11:55;31.60;99.90
17740;DHT22;8990;33.226;-97.150;2022-07-17T14:14:25;31.70;99.90
17740;DHT22;8990;33.226;-97.150;2022-07-17T14:16:55;31.90;99.90
17740;DHT22;8990;33.226;-97.150;2022-07-17T14:19:25;32.00;99.90
17740;DHT22;8990;33.226;-97.150;2022-07-17T14:21:54;32.10;99.90
17740;DHT22;8990;33.226;-97.150;2022-07-17T14:24:23;32.20;99.90
17740;DHT22;8990;33.226;-97.150;2022-07-17T14:26:53;32.20;99.90
17740;DHT22;8990;33.226;-97.150;2022-07-17T14:29:22;32.30;99.90
17740;DHT22;8990;33.226;-97.150;2022-07-17T14:31:51;32.40;99.90
17740;DHT22;8990;33.226;-97.150;2022-07-17T14:34:22;32.40;99.90
17740;DHT22;8990;33.226;-97.150;2022-07-17T14:36:51;32.40;99.90
17740;DHT22;8990;33.226;-97.150;2022-07-17T14:39:21;32.50;99.90
17740;DHT22;8990;33.226;-97.150;2022-07-17T14:44:36;32.60;99.90
17740;DHT22;8990;33.226;-97.150;2022-07-17T14:47:06;32.70;99.90
17740;DHT22;8990;33.226;-97.150;2022-07-17T14:49:37;32.90;99.90
17740;DHT22;8990;33.226;-97.150;2022-07-17T14:52:06;33.10;99.90
17740;DHT22;8990;33.226;-97.150;2022-07-17T14:54:35;33.30;99.90
17740;DHT22;8990;33.226;-97.150;2022-07-17T14:57:05;33.30;99.90
17740;DHT22;8990;33.226;-97.150;2022-07-17T14:59:34;33.20;99.90
17740;DHT22;8990;33.226;-97.150;2022-07-17T15:02:03;33.40;99.90
17740;DHT22;8990;33.226;-97.150;2022-07-17T15:04:33;33.50;99.90
17740;DHT22;8990;33.226;-97.150;2022-07-17T15:07:05;33.60;99.90
17740;DHT22;8990;33.226;-97.150;2022-07-17T15:09:34;33.70;99.90
17740;DHT22;8990;33.226;-97.150;2022-07-17T15:12:03;33.60;99.90
17740;DHT22;8990;33.226;-97.150;2022-07-17T15:14:33;33.80;99.90
17740;DHT22;8990;33.226;-97.150;2022-07-17T15:17:02;33.90;99.90
17740;DHT22;8990;33.226;-97.150;2022-07-17T15:19:31;34.00;99.90
17740;DHT22;8990;33.226;-97.150;2022-07-17T15:22:01;34.10;99.90
17740;DHT22;8990;33.226;-97.150;2022-07-17T15:24:31;34.20;99.90
17740;DHT22;8990;33.226;-97.150;2022-07-17T15:27:01;34.40;99.90
17740;DHT22;8990;33.226;-97.150;2022-07-17T15:29:29;34.50;99.90
17740;DHT22;8990;33.226;-97.150;2022-07-17T15:32:00;34.60;99.90
17740;DHT22;8990;33.226;-97.150;2022-07-17T15:34:30;34.70;99.90
17740;DHT22;8990;33.226;-97.150;2022-07-17T15:36:59;34.80;99.90